sensor_id;sensor_type;location;lat;lon;timestamp;temperature;humidity
21306;DHT22;10812;51.838;5.838;2023-03-01T00:01:21;0.10;99.90
21306;DHT22;10812;51.838;5.838;2023-03-01T00:03:49;-0.10;99.90
21306;DHT22;10812;51.838;5.838;2023-03-01T00:06:19;-0.20;99.90
21306;DHT22;10812;51.838;5.838;2023-03-01T00:08:48;-0.20;99.90
21306;DHT22;10812;51.838;5.838;2023-03-01T00:11:19;-0.30;99.90
21306;DHT22;10812;51.838;5.838;2023-03-01T00:17:28;-0.20;99.90
21306;DHT22;10812;51.838;5.838;2023-03-01T00:19:57;-0.40;99.90
21306;DHT22;10812;51.838;5.838;2023-03-01T00:22:26;-0.50;99.90
21306;DHT22;10812;51.838;5.838;2023-03-01T00:24:55;-0.50;99.90
21306;DHT22;10812;51.838;5.838;2023-03-01T00:27:25;-0.50;99.90
21306;DHT22;10812;51.838;5.838;2023-03-01T00:29:53;-0.60;99.90
21306;DHT22;10812;51.838;5.838;2023-03-01T00:32:21;-0.60;99.90
21306;DHT22;10812;51.838;5.838;2023-03-01T00:34:49;-0.70;99.90
21306;DHT22;10812;51.838;5.838;2023-03-01T00:37:22;-0.90;99.90
21306;DHT22;10812;51.838;5.838;2023-03-01T00:39:50;-1.10;99.90
21306;DHT22;10812;51.838;5.838;2023-03-01T00:42:18;-1.20;99.90
21306;DHT22;10812;51.838;5.838;2023-03-01T00:44:47;-1.30;99.90
21306;DHT22;10812;51.838;5.838;2023-03-01T00:47:15;-1.40;99.90
21306;DHT22;10812;51.838;5.838;2023-03-01T00:49:44;-1.40;99.90
21306;DHT22;10812;51.838;5.838;2023-03-01T00:52:12;-1.40;99.90
21306;DHT22;10812;51.838;5.838;2023-03-01T00:54:40;-1.40;99.90
21306;DHT22;10812;51.838;5.838;2023-03-01T00:57:08;-1.30;99.90
21306;DHT22;10812;51.838;5.838;2023-03-01T00:59:36;-1.30;99.90
21306;DHT22;10812;51.838;5.838;2023-03-01T01:02:05;-1.20;99.90
21306;DHT22;10812;51.838;5.838;2023-03-01T01:04:33;-1.20;99.90
21306;DHT22;10812;51.838;5.838;2023-03-01T01:07:01;-1.00;99.90
21306;DHT22;10812;51.838;5.838;2023-03-01T01:09:30;-0.80;99.90
21306;DHT22;10812;51.838;5.838;2023-03-01T01:11:58;-0.90;99.90
21306;DHT22;10812;51.838;5.838;2023-03-01T01:14:26;-1.10;99.90
21306;DHT22;10812;51.838;5.838;2023-03-01T01:16:54;-1.20;99.90
21306;DHT22;10812;51.838;5.838;2023-03-01T01:19:25;-1.40;99.90
21306;DHT22;10812;51.838;5.838;2023-03-01T01:21:53;-1.50;99.90
21306;DHT22;10812;51.838;5.838;2023-03-01T01:24:21;-1.70;99.90
21306;DHT22;10812;51.838;5.838;2023-03-01T01:26:49;-1.80;99.90
21306;DHT22;10812;51.838;5.838;2023-03-01T01:29:17;-2.00;99.90
21306;DHT22;10812;51.838;5.838;2023-03-01T01:31:46;-2.00;99.90
21306;DHT22;10812;51.838;5.838;2023-03-01T01:34:15;-2.10;99.90
21306;DHT22;10812;51.838;5.838;2023-03-01T01:36:47;-2.10;99.90
21306;DHT22;10812;51.838;5.838;2023-03-01T01:39:16;-2.20;99.90
21306;DHT22;10812;51.838;5.838;2023-03-01T01:41:44;-2.20;99.90
21306;DHT22;10812;51.838;5.838;2023-03-01T01:44:16;-2.30;99.90
21306;DHT22;10812;51.838;5.838;2023-03-01T01:46:47;-2.40;99.90
21306;DHT22;10812;51.838;5.838;2023-03-01T01:49:23;-2.40;99.90
21306;DHT22;10812;51.838;5.838;2023-03-01T01:52:00;-2.50;99.90
21306;DHT22;10812;51.838;5.838;2023-03-01T01:54:34;-2.50;99.90
21306;DHT22;10812;51.838;5.838;2023-03-01T01:57:10;-2.50;99.90
21306;DHT22;10812;51.838;5.838;2023-03-01T01:59:40;-2.40;99.90
21306;DHT22;10812;51.838;5.838;2023-03-01T02:02:11;-2.20;99.90
21306;DHT22;10812;51.838;5.838;2023-03-01T02:04:40;-2.20;99.90
21306;DHT22;10812;51.838;5.838;2023-03-01T02:07:15;-2.20;99.90
21306;DHT22;10812;51.838;5.838;2023-03-01T02:09:46;-2.30;99.90
21306;DHT22;10812;51.838;5.838;2023-03-01T02:12:16;-2.40;99.90
21306;DHT22;10812;51.838;5.838;2023-03-01T02:14:45;-2.40;99.90
21306;DHT22;10812;51.838;5.838;2023-03-01T02:17:15;-2.40;99.90
21306;DHT22;10812;51.838;5.838;2023-03-01T02:19:54;-2.50;99.90
21306;DHT22;10812;51.838;5.838;2023-03-01T02:22:28;-2.40;99.90
21306;DHT22;10812;51.838;5.838;2023-03-01T02:25:06;-2.40;99.90
21306;DHT22;10812;51.838;5.838;2023-03-01T02:27:41;-2.30;99.90
21306;DHT22;10812;51.838;5.838;2023-03-01T02:30:12;-2.40;99.90
21306;DHT22;10812;51.838;5.838;2023-03-01T02:32:41;-2.40;99.90
21306;DHT22;10812;51.838;5.838;2023-03-01T02:35:09;-2.40;99.90
21306;DHT22;10812;51.838;5.838;2023-03-01T02:37:40;-2.50;99.90
21306;DHT22;10812;51.838;5.838;2023-03-01T02:40:12;-2.40;99.90
21306;DHT22;10812;51.838;5.838;2023-03-01T02:42:48;-2.50;99.90
21306;DHT22;10812;51.838;5.838;2023-03-01T02:45:19;-2.40;99.90
21306;DHT22;10812;51.838;5.838;2023-03-01T02:47:47;-2.50;99.90
21306;DHT22;10812;51.838;5.838;2023-03-01T02:50:22;-2.50;99.90
21306;DHT22;10812;51.838;5.838;2023-03-01T02:52:57;-2.40;99.90
21306;DHT22;10812;51.838;5.838;2023-03-01T02:55:29;-2.20;99.90
21306;DHT22;10812;51.838;5.838;2023-03-01T02:58:00;-2.00;99.90
21306;DHT22;10812;51.838;5.838;2023-03-01T03:06:01;-1.90;99.90
21306;DHT22;10812;51.838;5.838;2023-03-01T03:09:05;-1.80;99.90
21306;DHT22;10812;51.838;5.838;2023-03-01T03:11:34;-1.70;99.90
21306;DHT22;10812;51.838;5.838;2023-03-01T03:14:03;-1.60;99.90
21306;DHT22;10812;51.838;5.838;2023-03-01T03:16:31;-1.50;99.90
21306;DHT22;10812;51.838;5.838;2023-03-01T03:19:00;-1.50;99.90
21306;DHT22;10812;51.838;5.838;2023-03-01T03:21:33;-1.50;99.90
21306;DHT22;10812;51.838;5.838;2023-03-01T03:24:01;-1.40;99.90
21306;DHT22;10812;51.838;5.838;2023-03-01T03:26:30;-1.40;99.90
21306;DHT22;10812;51.838;5.838;2023-03-01T03:28:58;-1.30;99.90
21306;DHT22;10812;51.838;5.838;2023-03-01T03:31:27;-1.20;99.90
21306;DHT22;10812;51.838;5.838;2023-03-01T03:33:56;-1.30;99.90
21306;DHT22;10812;51.838;5.838;2023-03-01T03:36:25;-1.30;99.90
21306;DHT22;10812;51.838;5.838;2023-03-01T03:38:55;-1.40;99.90
21306;DHT22;10812;51.838;5.838;2023-03-01T03:41:23;-1.50;99.90
21306;DHT22;10812;51.838;5.838;2023-03-01T03:43:51;-1.50;99.90
21306;DHT22;10812;51.838;5.838;2023-03-01T03:46:19;-1.50;99.90
21306;DHT22;10812;51.838;5.838;2023-03-01T03:48:48;-1.50;99.90
21306;DHT22;10812;51.838;5.838;2023-03-01T03:51:18;-1.60;99.90
21306;DHT22;10812;51.838;5.838;2023-03-01T03:53:46;-1.80;99.90
21306;DHT22;10812;51.838;5.838;2023-03-01T03:56:16;-1.90;99.90
21306;DHT22;10812;51.838;5.838;2023-03-01T03:58:44;-2.10;99.90
21306;DHT22;10812;51.838;5.838;2023-03-01T04:01:12;-2.20;99.90
21306;DHT22;10812;51.838;5.838;2023-03-01T04:03:40;-2.30;99.90
21306;DHT22;10812;51.838;5.838;2023-03-01T04:06:13;-2.30;99.90
21306;DHT22;10812;51.838;5.838;2023-03-01T04:08:42;-2.30;99.90
21306;DHT22;10812;51.838;5.838;2023-03-01T04:11:10;-2.30;99.90
21306;DHT22;10812;51.838;5.838;2023-03-01T04:13:57;-2.30;99.90
21306;DHT22;10812;51.838;5.838;2023-03-01T04:19:49;-2.30;99.90
21306;DHT22;10812;51.838;5.838;2023-03-01T04:22:18;-2.20;99.90
21306;DHT22;10812;51.838;5.838;2023-03-01T04:24:46;-2.20;99.90
21306;DHT22;10812;51.838;5.838;2023-03-01T04:27:14;-2.20;99.90
21306;DHT22;10812;51.838;5.838;2023-03-01T04:29:44;-2.30;99.90
21306;DHT22;10812;51.838;5.838;2023-03-01T04:32:12;-2.20;99.90
21306;DHT22;10812;51.838;5.838;2023-03-01T04:34:43;-2.30;99.90
21306;DHT22;10812;51.838;5.838;2023-03-01T04:37:11;-2.50;99.90
21306;DHT22;10812;51.838;5.838;2023-03-01T04:39:39;-2.60;99.90
21306;DHT22;10812;51.838;5.838;2023-03-01T04:42:12;-2.50;99.90
21306;DHT22;10812;51.838;5.838;2023-03-01T04:44:40;-2.50;99.90
21306;DHT22;10812;51.838;5.838;2023-03-01T04:47:10;-2.50;99.90
21306;DHT22;10812;51.838;5.838;2023-03-01T04:49:38;-2.60;99.90
21306;DHT22;10812;51.838;5.838;2023-03-01T04:52:06;-2.60;99.90
21306;DHT22;10812;51.838;5.838;2023-03-01T04:54:36;-2.50;99.90
21306;DHT22;10812;51.838;5.838;2023-03-01T04:57:04;-2.60;99.90
21306;DHT22;10812;51.838;5.838;2023-03-01T04:59:32;-2.40;99.90
21306;DHT22;10812;51.838;5.838;2023-03-01T05:02:02;-2.40;99.90
21306;DHT22;10812;51.838;5.838;2023-03-01T05:04:32;-2.10;99.90
21306;DHT22;10812;51.838;5.838;2023-03-01T05:07:00;-2.10;99.90
21306;DHT22;10812;51.838;5.838;2023-03-01T05:09:28;-2.10;99.90
21306;DHT22;10812;51.838;5.838;2023-03-01T05:11:57;-2.00;99.90
21306;DHT22;10812;51.838;5.838;2023-03-01T05:14:25;-2.00;99.90
21306;DHT22;10812;51.838;5.838;2023-03-01T05:16:53;-2.00;99.90
21306;DHT22;10812;51.838;5.838;2023-03-01T05:19:21;-2.00;99.90
21306;DHT22;10812;51.838;5.838;2023-03-01T05:21:51;-2.00;99.90
21306;DHT22;10812;51.838;5.838;2023-03-01T05:24:33;-1.90;99.90
21306;DHT22;10812;51.838;5.838;2023-03-01T05:27:01;-1.90;99.90
21306;DHT22;10812;51.838;5.838;2023-03-01T05:29:31;-1.90;99.90
21306;DHT22;10812;51.838;5.838;2023-03-01T05:32:02;-2.00;99.90
21306;DHT22;10812;51.838;5.838;2023-03-01T05:34:32;-1.90;99.90
21306;DHT22;10812;51.838;5.838;2023-03-01T05:37:02;-1.90;99.90
21306;DHT22;10812;51.838;5.838;2023-03-01T05:39:31;-2.00;99.90
21306;DHT22;10812;51.838;5.838;2023-03-01T05:42:01;-2.00;99.90
21306;DHT22;10812;51.838;5.838;2023-03-01T05:44:29;-2.00;99.90
21306;DHT22;10812;51.838;5.838;2023-03-01T05:46:58;-1.90;99.90
21306;DHT22;10812;51.838;5.838;2023-03-01T05:49:26;-1.90;99.90
21306;DHT22;10812;51.838;5.838;2023-03-01T05:51:55;-2.00;99.90
21306;DHT22;10812;51.838;5.838;2023-03-01T05:54:24;-2.00;99.90
21306;DHT22;10812;51.838;5.838;2023-03-01T05:56:53;-2.10;99.90
21306;DHT22;10812;51.838;5.838;2023-03-01T05:59:21;-2.20;99.90
21306;DHT22;10812;51.838;5.838;2023-03-01T06:01:49;-2.10;99.90
21306;DHT22;10812;51.838;5.838;2023-03-01T06:04:17;-2.10;99.90
21306;DHT22;10812;51.838;5.838;2023-03-01T06:06:45;-2.10;99.90
21306;DHT22;10812;51.838;5.838;2023-03-01T06:09:13;-2.10;99.90
21306;DHT22;10812;51.838;5.838;2023-03-01T06:11:43;-2.00;99.90
21306;DHT22;10812;51.838;5.838;2023-03-01T06:14:11;-2.00;99.90
21306;DHT22;10812;51.838;5.838;2023-03-01T06:16:41;-2.10;99.90
21306;DHT22;10812;51.838;5.838;2023-03-01T06:19:09;-2.10;99.90
21306;DHT22;10812;51.838;5.838;2023-03-01T06:21:37;-2.10;99.90
21306;DHT22;10812;51.838;5.838;2023-03-01T06:24:06;-2.00;99.90
21306;DHT22;10812;51.838;5.838;2023-03-01T06:26:35;-1.80;99.90
21306;DHT22;10812;51.838;5.838;2023-03-01T06:29:04;-1.70;99.90
21306;DHT22;10812;51.838;5.838;2023-03-01T06:31:32;-1.60;99.90
21306;DHT22;10812;51.838;5.838;2023-03-01T06:34:01;-1.50;99.90
21306;DHT22;10812;51.838;5.838;2023-03-01T06:36:29;-1.50;99.90
21306;DHT22;10812;51.838;5.838;2023-03-01T06:38:58;-1.40;99.90
21306;DHT22;10812;51.838;5.838;2023-03-01T06:41:26;-1.40;99.90
21306;DHT22;10812;51.838;5.838;2023-03-01T06:43:54;-1.30;99.90
21306;DHT22;10812;51.838;5.838;2023-03-01T06:46:23;-1.30;99.90
21306;DHT22;10812;51.838;5.838;2023-03-01T06:48:51;-1.30;99.90
21306;DHT22;10812;51.838;5.838;2023-03-01T06:51:20;-1.20;99.90
21306;DHT22;10812;51.838;5.838;2023-03-01T06:53:48;-1.20;99.90
21306;DHT22;10812;51.838;5.838;2023-03-01T06:56:16;-1.20;99.90
21306;DHT22;10812;51.838;5.838;2023-03-01T06:58:44;-1.10;99.90
21306;DHT22;10812;51.838;5.838;2023-03-01T07:01:12;-1.10;99.90
21306;DHT22;10812;51.838;5.838;2023-03-01T07:03:41;-1.10;99.90
21306;DHT22;10812;51.838;5.838;2023-03-01T07:06:11;-1.10;99.90
21306;DHT22;10812;51.838;5.838;2023-03-01T07:08:39;-1.00;99.90
21306;DHT22;10812;51.838;5.838;2023-03-01T07:11:07;-1.00;99.90
21306;DHT22;10812;51.838;5.838;2023-03-01T07:13:35;-0.90;99.90
21306;DHT22;10812;51.838;5.838;2023-03-01T07:16:03;-0.90;99.90
21306;DHT22;10812;51.838;5.838;2023-03-01T07:18:32;-0.90;99.90
21306;DHT22;10812;51.838;5.838;2023-03-01T07:21:05;-0.30;99.90
21306;DHT22;10812;51.838;5.838;2023-03-01T07:23:33;1.00;99.90
21306;DHT22;10812;51.838;5.838;2023-03-01T07:26:02;2.00;99.90
21306;DHT22;10812;51.838;5.838;2023-03-01T07:28:30;2.90;99.90
21306;DHT22;10812;51.838;5.838;2023-03-01T07:31:02;3.50;99.90
21306;DHT22;10812;51.838;5.838;2023-03-01T07:33:31;4.00;99.90
21306;DHT22;10812;51.838;5.838;2023-03-01T07:36:00;4.50;99.90
21306;DHT22;10812;51.838;5.838;2023-03-01T07:38:30;5.00;99.90
21306;DHT22;10812;51.838;5.838;2023-03-01T07:40:59;5.00;99.90
21306;DHT22;10812;51.838;5.838;2023-03-01T07:43:27;5.30;99.90
21306;DHT22;10812;51.838;5.838;2023-03-01T07:45:58;5.60;99.90
21306;DHT22;10812;51.838;5.838;2023-03-01T07:48:26;5.80;99.90
21306;DHT22;10812;51.838;5.838;2023-03-01T07:50:54;6.30;99.90
21306;DHT22;10812;51.838;5.838;2023-03-01T07:53:25;6.90;99.90
21306;DHT22;10812;51.838;5.838;2023-03-01T07:56:02;7.30;99.90
21306;DHT22;10812;51.838;5.838;2023-03-01T07:58:31;7.00;99.90
21306;DHT22;10812;51.838;5.838;2023-03-01T08:01:02;6.90;99.90
21306;DHT22;10812;51.838;5.838;2023-03-01T08:03:30;6.90;99.90
21306;DHT22;10812;51.838;5.838;2023-03-01T08:05:59;6.70;99.90
21306;DHT22;10812;51.838;5.838;2023-03-01T08:08:28;7.10;99.90
21306;DHT22;10812;51.838;5.838;2023-03-01T08:10:57;7.90;99.90
21306;DHT22;10812;51.838;5.838;2023-03-01T08:13:27;7.80;99.90
21306;DHT22;10812;51.838;5.838;2023-03-01T08:15:59;7.70;99.90
21306;DHT22;10812;51.838;5.838;2023-03-01T08:18:28;7.70;99.90
21306;DHT22;10812;51.838;5.838;2023-03-01T08:21:00;8.30;99.90
21306;DHT22;10812;51.838;5.838;2023-03-01T08:23:28;8.40;99.90
21306;DHT22;10812;51.838;5.838;2023-03-01T08:26:04;7.90;99.90
21306;DHT22;10812;51.838;5.838;2023-03-01T08:28:34;8.20;99.90
21306;DHT22;10812;51.838;5.838;2023-03-01T08:31:02;8.40;99.90
21306;DHT22;10812;51.838;5.838;2023-03-01T08:33:30;8.50;99.90
21306;DHT22;10812;51.838;5.838;2023-03-01T08:36:05;9.30;99.70
21306;DHT22;10812;51.838;5.838;2023-03-01T08:38:34;9.70;99.00
21306;DHT22;10812;51.838;5.838;2023-03-01T08:41:03;10.00;97.40
21306;DHT22;10812;51.838;5.838;2023-03-01T08:43:31;9.40;98.00
21306;DHT22;10812;51.838;5.838;2023-03-01T08:46:01;9.10;98.30
21306;DHT22;10812;51.838;5.838;2023-03-01T08:48:29;8.50;99.20
21306;DHT22;10812;51.838;5.838;2023-03-01T08:51:07;8.10;99.60
21306;DHT22;10812;51.838;5.838;2023-03-01T08:53:35;8.80;99.70
21306;DHT22;10812;51.838;5.838;2023-03-01T08:56:04;8.90;99.30
21306;DHT22;10812;51.838;5.838;2023-03-01T08:58:32;9.40;99.10
21306;DHT22;10812;51.838;5.838;2023-03-01T09:01:06;9.10;98.80
21306;DHT22;10812;51.838;5.838;2023-03-01T09:03:35;8.60;99.10
21306;DHT22;10812;51.838;5.838;2023-03-01T09:06:05;8.20;99.90
21306;DHT22;10812;51.838;5.838;2023-03-01T09:08:34;8.50;99.90
21306;DHT22;10812;51.838;5.838;2023-03-01T09:11:03;8.40;99.90
21306;DHT22;10812;51.838;5.838;2023-03-01T09:13:31;8.40;99.90
21306;DHT22;10812;51.838;5.838;2023-03-01T09:16:02;9.50;99.30
21306;DHT22;10812;51.838;5.838;2023-03-01T09:18:31;10.00;97.30
21306;DHT22;10812;51.838;5.838;2023-03-01T09:21:03;9.90;97.80
21306;DHT22;10812;51.838;5.838;2023-03-01T09:23:34;9.50;97.80
21306;DHT22;10812;51.838;5.838;2023-03-01T09:26:05;10.10;96.30
21306;DHT22;10812;51.838;5.838;2023-03-01T09:28:36;9.70;96.70
21306;DHT22;10812;51.838;5.838;2023-03-01T09:31:05;10.10;96.30
21306;DHT22;10812;51.838;5.838;2023-03-01T09:33:34;10.40;95.40
21306;DHT22;10812;51.838;5.838;2023-03-01T09:36:04;10.00;95.70
21306;DHT22;10812;51.838;5.838;2023-03-01T09:38:33;8.90;96.30
21306;DHT22;10812;51.838;5.838;2023-03-01T09:41:02;8.50;97.20
21306;DHT22;10812;51.838;5.838;2023-03-01T09:43:39;8.40;97.80
21306;DHT22;10812;51.838;5.838;2023-03-01T09:46:12;7.70;98.40
21306;DHT22;10812;51.838;5.838;2023-03-01T09:48:46;7.30;98.90
21306;DHT22;10812;51.838;5.838;2023-03-01T09:55:26;7.10;98.70
21306;DHT22;10812;51.838;5.838;2023-03-01T09:58:00;6.90;99.50
21306;DHT22;10812;51.838;5.838;2023-03-01T10:00:37;7.10;99.00
21306;DHT22;10812;51.838;5.838;2023-03-01T10:03:14;7.10;98.90
21306;DHT22;10812;51.838;5.838;2023-03-01T10:05:50;7.20;99.30
21306;DHT22;10812;51.838;5.838;2023-03-01T10:08:30;7.40;98.30
21306;DHT22;10812;51.838;5.838;2023-03-01T10:11:03;6.50;99.10
21306;DHT22;10812;51.838;5.838;2023-03-01T10:13:37;6.00;99.90
21306;DHT22;10812;51.838;5.838;2023-03-01T10:16:14;5.60;99.90
21306;DHT22;10812;51.838;5.838;2023-03-01T10:18:48;5.00;99.90
21306;DHT22;10812;51.838;5.838;2023-03-01T10:21:20;4.90;99.90
21306;DHT22;10812;51.838;5.838;2023-03-01T10:23:51;4.80;99.90
21306;DHT22;10812;51.838;5.838;2023-03-01T10:26:35;4.90;99.90
21306;DHT22;10812;51.838;5.838;2023-03-01T10:29:08;4.80;99.90
21306;DHT22;10812;51.838;5.838;2023-03-01T10:31:42;4.70;99.90
21306;DHT22;10812;51.838;5.838;2023-03-01T10:34:15;4.70;99.90
21306;DHT22;10812;51.838;5.838;2023-03-01T10:36:47;4.80;99.90
21306;DHT22;10812;51.838;5.838;2023-03-01T10:39:17;4.80;99.90
21306;DHT22;10812;51.838;5.838;2023-03-01T10:41:58;4.80;99.90
21306;DHT22;10812;51.838;5.838;2023-03-01T10:44:39;4.80;99.90
21306;DHT22;10812;51.838;5.838;2023-03-01T10:47:14;5.00;99.90
21306;DHT22;10812;51.838;5.838;2023-03-01T10:49:59;5.00;99.90
21306;DHT22;10812;51.838;5.838;2023-03-01T10:52:30;5.10;99.90
21306;DHT22;10812;51.838;5.838;2023-03-01T10:55:02;5.00;99.90
21306;DHT22;10812;51.838;5.838;2023-03-01T10:57:34;5.00;99.90
21306;DHT22;10812;51.838;5.838;2023-03-01T11:00:22;4.90;99.90
21306;DHT22;10812;51.838;5.838;2023-03-01T11:03:04;5.00;99.90
21306;DHT22;10812;51.838;5.838;2023-03-01T11:05:54;4.90;99.90
21306;DHT22;10812;51.838;5.838;2023-03-01T11:08:31;4.90;99.90
21306;DHT22;10812;51.838;5.838;2023-03-01T11:11:17;5.00;99.90
21306;DHT22;10812;51.838;5.838;2023-03-01T11:13:54;5.10;99.90
21306;DHT22;10812;51.838;5.838;2023-03-01T11:16:26;5.20;99.90
21306;DHT22;10812;51.838;5.838;2023-03-01T11:19:00;5.30;99.90
21306;DHT22;10812;51.838;5.838;2023-03-01T11:21:33;5.30;99.90
21306;DHT22;10812;51.838;5.838;2023-03-01T11:24:05;5.20;99.90
21306;DHT22;10812;51.838;5.838;2023-03-01T11:26:37;5.30;99.90
21306;DHT22;10812;51.838;5.838;2023-03-01T11:29:15;5.30;99.90
21306;DHT22;10812;51.838;5.838;2023-03-01T11:31:45;5.30;99.90
21306;DHT22;10812;51.838;5.838;2023-03-01T11:34:33;5.20;99.90
21306;DHT22;10812;51.838;5.838;2023-03-01T11:37:12;5.20;99.90
21306;DHT22;10812;51.838;5.838;2023-03-01T11:39:46;5.40;99.90
21306;DHT22;10812;51.838;5.838;2023-03-01T11:42:18;5.40;99.90
21306;DHT22;10812;51.838;5.838;2023-03-01T11:44:50;5.40;99.90
21306;DHT22;10812;51.838;5.838;2023-03-01T11:47:29;5.30;99.90
21306;DHT22;10812;51.838;5.838;2023-03-01T11:50:13;5.50;99.90
21306;DHT22;10812;51.838;5.838;2023-03-01T11:52:52;5.60;99.90
21306;DHT22;10812;51.838;5.838;2023-03-01T11:55:30;5.50;99.90
21306;DHT22;10812;51.838;5.838;2023-03-01T11:58:14;5.30;99.90
21306;DHT22;10812;51.838;5.838;2023-03-01T12:01:09;5.50;99.90
21306;DHT22;10812;51.838;5.838;2023-03-01T12:03:55;5.50;99.90
21306;DHT22;10812;51.838;5.838;2023-03-01T12:06:35;5.40;99.90
21306;DHT22;10812;51.838;5.838;2023-03-01T12:09:17;5.50;99.90
21306;DHT22;10812;51.838;5.838;2023-03-01T12:12:05;5.50;99.90
21306;DHT22;10812;51.838;5.838;2023-03-01T12:14:55;5.60;99.90
21306;DHT22;10812;51.838;5.838;2023-03-01T12:17:43;5.60;99.90
21306;DHT22;10812;51.838;5.838;2023-03-01T12:20:24;5.50;99.90
21306;DHT22;10812;51.838;5.838;2023-03-01T12:23:18;5.60;99.90
21306;DHT22;10812;51.838;5.838;2023-03-01T12:25:55;5.60;99.90
21306;DHT22;10812;51.838;5.838;2023-03-01T12:28:41;5.80;99.90
21306;DHT22;10812;51.838;5.838;2023-03-01T12:31:44;5.70;99.90
21306;DHT22;10812;51.838;5.838;2023-03-01T12:34:36;5.70;99.90
21306;DHT22;10812;51.838;5.838;2023-03-01T12:37:17;5.90;99.90
21306;DHT22;10812;51.838;5.838;2023-03-01T12:39:59;5.90;99.90
21306;DHT22;10812;51.838;5.838;2023-03-01T12:42:35;5.70;99.90
21306;DHT22;10812;51.838;5.838;2023-03-01T12:45:32;5.80;99.90
21306;DHT22;10812;51.838;5.838;2023-03-01T12:48:15;5.80;99.90
21306;DHT22;10812;51.838;5.838;2023-03-01T12:50:48;5.90;99.90
21306;DHT22;10812;51.838;5.838;2023-03-01T12:53:23;5.90;99.90
21306;DHT22;10812;51.838;5.838;2023-03-01T12:55:53;6.00;99.90
21306;DHT22;10812;51.838;5.838;2023-03-01T12:58:29;6.10;99.90
21306;DHT22;10812;51.838;5.838;2023-03-01T13:01:35;5.90;99.90
21306;DHT22;10812;51.838;5.838;2023-03-01T13:04:26;5.90;99.80
21306;DHT22;10812;51.838;5.838;2023-03-01T13:07:05;5.90;99.90
21306;DHT22;10812;51.838;5.838;2023-03-01T13:09:40;5.90;99.90
21306;DHT22;10812;51.838;5.838;2023-03-01T13:12:46;6.00;99.90
21306;DHT22;10812;51.838;5.838;2023-03-01T13:15:30;6.00;99.90
21306;DHT22;10812;51.838;5.838;2023-03-01T13:18:00;6.10;99.90
21306;DHT22;10812;51.838;5.838;2023-03-01T13:20:34;6.10;99.20
21306;DHT22;10812;51.838;5.838;2023-03-01T13:23:24;6.10;99.40
21306;DHT22;10812;51.838;5.838;2023-03-01T13:26:08;6.10;99.20
21306;DHT22;10812;51.838;5.838;2023-03-01T13:28:46;6.10;99.70
21306;DHT22;10812;51.838;5.838;2023-03-01T13:34:53;6.10;99.90
21306;DHT22;10812;51.838;5.838;2023-03-01T13:37:33;6.10;99.90
21306;DHT22;10812;51.838;5.838;2023-03-01T13:43:31;6.40;99.40
21306;DHT22;10812;51.838;5.838;2023-03-01T13:46:00;6.30;99.10
21306;DHT22;10812;51.838;5.838;2023-03-01T13:48:30;6.20;99.40
21306;DHT22;10812;51.838;5.838;2023-03-01T13:51:03;6.20;99.70
21306;DHT22;10812;51.838;5.838;2023-03-01T13:53:35;6.30;99.90
21306;DHT22;10812;51.838;5.838;2023-03-01T13:56:09;6.30;99.90
21306;DHT22;10812;51.838;5.838;2023-03-01T13:58:49;6.40;99.30
21306;DHT22;10812;51.838;5.838;2023-03-01T14:01:23;6.20;99.50
21306;DHT22;10812;51.838;5.838;2023-03-01T14:03:52;6.30;99.60
21306;DHT22;10812;51.838;5.838;2023-03-01T14:06:24;6.40;99.40
21306;DHT22;10812;51.838;5.838;2023-03-01T14:09:03;6.50;99.00
21306;DHT22;10812;51.838;5.838;2023-03-01T14:12:06;6.50;99.00
21306;DHT22;10812;51.838;5.838;2023-03-01T14:14:44;6.60;99.40
21306;DHT22;10812;51.838;5.838;2023-03-01T14:20:12;6.50;99.20
21306;DHT22;10812;51.838;5.838;2023-03-01T14:22:44;6.50;99.20
21306;DHT22;10812;51.838;5.838;2023-03-01T14:25:30;6.60;99.60
21306;DHT22;10812;51.838;5.838;2023-03-01T14:28:02;6.50;99.20
21306;DHT22;10812;51.838;5.838;2023-03-01T14:30:36;6.50;99.60
21306;DHT22;10812;51.838;5.838;2023-03-01T14:33:17;6.60;99.70
21306;DHT22;10812;51.838;5.838;2023-03-01T14:35:54;6.60;99.70
21306;DHT22;10812;51.838;5.838;2023-03-01T14:38:30;6.60;99.60
21306;DHT22;10812;51.838;5.838;2023-03-01T14:41:01;6.60;99.70
21306;DHT22;10812;51.838;5.838;2023-03-01T14:43:32;6.60;99.70
21306;DHT22;10812;51.838;5.838;2023-03-01T14:46:01;6.70;98.90
21306;DHT22;10812;51.838;5.838;2023-03-01T14:48:29;6.60;98.90
21306;DHT22;10812;51.838;5.838;2023-03-01T14:50:58;6.60;99.20
21306;DHT22;10812;51.838;5.838;2023-03-01T14:53:30;6.60;99.30
21306;DHT22;10812;51.838;5.838;2023-03-01T14:56:14;6.60;99.50
21306;DHT22;10812;51.838;5.838;2023-03-01T14:58:44;6.70;99.60
21306;DHT22;10812;51.838;5.838;2023-03-01T15:01:16;6.70;98.40
21306;DHT22;10812;51.838;5.838;2023-03-01T15:03:47;6.70;98.40
21306;DHT22;10812;51.838;5.838;2023-03-01T15:06:17;6.70;98.60
21306;DHT22;10812;51.838;5.838;2023-03-01T15:08:48;6.70;98.60
21306;DHT22;10812;51.838;5.838;2023-03-01T15:11:20;6.70;98.30
21306;DHT22;10812;51.838;5.838;2023-03-01T15:13:51;6.70;98.40
21306;DHT22;10812;51.838;5.838;2023-03-01T15:16:22;6.70;97.80
21306;DHT22;10812;51.838;5.838;2023-03-01T15:18:54;6.70;97.60
21306;DHT22;10812;51.838;5.838;2023-03-01T15:21:24;6.70;97.50
21306;DHT22;10812;51.838;5.838;2023-03-01T15:23:59;6.70;97.80
21306;DHT22;10812;51.838;5.838;2023-03-01T15:26:32;6.80;98.00
21306;DHT22;10812;51.838;5.838;2023-03-01T15:29:01;6.80;97.80
21306;DHT22;10812;51.838;5.838;2023-03-01T15:31:31;6.70;98.10
21306;DHT22;10812;51.838;5.838;2023-03-01T15:34:11;6.70;98.50
21306;DHT22;10812;51.838;5.838;2023-03-01T15:36:47;6.70;98.20
21306;DHT22;10812;51.838;5.838;2023-03-01T15:39:42;6.70;98.20
21306;DHT22;10812;51.838;5.838;2023-03-01T15:42:12;6.60;98.40
21306;DHT22;10812;51.838;5.838;2023-03-01T15:44:43;6.60;98.70
21306;DHT22;10812;51.838;5.838;2023-03-01T15:47:26;6.60;98.40
21306;DHT22;10812;51.838;5.838;2023-03-01T15:49:56;6.60;98.30
21306;DHT22;10812;51.838;5.838;2023-03-01T15:52:28;6.60;98.60
21306;DHT22;10812;51.838;5.838;2023-03-01T15:55:02;6.60;98.90
21306;DHT22;10812;51.838;5.838;2023-03-01T15:57:31;6.50;99.30
21306;DHT22;10812;51.838;5.838;2023-03-01T15:59:59;6.50;99.60
21306;DHT22;10812;51.838;5.838;2023-03-01T16:02:28;6.50;99.30
21306;DHT22;10812;51.838;5.838;2023-03-01T16:04:56;6.50;98.70
21306;DHT22;10812;51.838;5.838;2023-03-01T16:07:25;6.50;98.80
21306;DHT22;10812;51.838;5.838;2023-03-01T16:09:54;6.40;98.90
21306;DHT22;10812;51.838;5.838;2023-03-01T16:12:24;6.50;99.10
21306;DHT22;10812;51.838;5.838;2023-03-01T16:14:52;6.50;99.00
21306;DHT22;10812;51.838;5.838;2023-03-01T16:17:20;6.40;98.80
21306;DHT22;10812;51.838;5.838;2023-03-01T16:19:49;6.40;98.80
21306;DHT22;10812;51.838;5.838;2023-03-01T16:22:17;6.40;98.70
21306;DHT22;10812;51.838;5.838;2023-03-01T16:24:51;6.40;98.80
21306;DHT22;10812;51.838;5.838;2023-03-01T16:27:19;6.40;98.90
21306;DHT22;10812;51.838;5.838;2023-03-01T16:29:50;6.40;99.00
21306;DHT22;10812;51.838;5.838;2023-03-01T16:32:18;6.30;99.30
21306;DHT22;10812;51.838;5.838;2023-03-01T16:34:46;6.30;99.50
21306;DHT22;10812;51.838;5.838;2023-03-01T16:37:16;6.20;99.70
21306;DHT22;10812;51.838;5.838;2023-03-01T16:39:46;6.20;99.90